Pagina principale
METAR-TAF:

METAR-TAF

Aeroporti :

Germiston, Sudafrica

latitudine: 26-14-33S, longitudine: 028-09-04E, altezza: 1671 m

Osservazione

Il bollettino è stato emesso 1 ora e 54 minuti fa, alle 14:00 UTC
Vento 7 kt da nord/nord-ovest
Temperature 17°C
Umidità 16%
Pressione 1023 hPa
Visibilità 10 km o più
nessuna nube inferiore a 1500 m e nessun cumulonembo

METAR: FAGM 241400Z 34007KT CAVOK 17/M09 Q1023

Ora: 17:54 (15:54 UTC)


TAF: mancante

Osservazioni e previsioni meteorologiche di più di 4000 aeroporti (messaggi METAR e TAF).

Le stazioni disponibili sono rappresentate dai dischi gialli e rossi sulla carta.

Puntare il mouse per vedere il nome della stazione.

Clicca sopra per visualizzare le osservazioni e previsioni meteorologiche.

Per cambiare la mappa : fare clic sui pulsanti verdi con una croce nera per ingrandire, il pulsante verde con un trattino per diminuire, o sulla freccia verde per le mappe adiacenti.


METAR-TAF: